createdAt,value
2023-03-29T00:01:45.156Z,100179.49
2023-03-29T00:04:12.963Z,100180.70
2023-03-29T00:06:41.891Z,100180.59
2023-03-29T00:09:09.546Z,100180.86
2023-03-29T00:11:41.323Z,100184.55
2023-03-29T00:14:11.019Z,100188.35
2023-03-29T00:16:37.828Z,100189.60
2023-03-29T00:19:05.064Z,100193.02
2023-03-29T00:21:32.093Z,100186.16
2023-03-29T00:23:59.610Z,100189.09
2023-03-29T00:26:26.487Z,100194.45
2023-03-29T00:28:53.880Z,100201.95
2023-03-29T00:31:20.899Z,100213.88
2023-03-29T00:33:47.819Z,100222.70
2023-03-29T00:36:15.468Z,100225.86
2023-03-29T00:38:42.522Z,100217.98
2023-03-29T00:41:10.076Z,100227.91
2023-03-29T00:44:01.766Z,100232.20
2023-03-29T00:47:08.596Z,100241.49
2023-03-29T00:50:41.612Z,100238.74
2023-03-29T00:54:27.546Z,100249.58
2023-03-29T00:58:04.511Z,100244.95
2023-03-29T01:08:52.810Z,100252.85
2023-03-29T01:27:15.637Z,100220.02
2023-03-29T01:29:58.645Z,100228.77
2023-03-29T01:32:47.993Z,100238.92
2023-03-29T01:35:23.975Z,100243.05
2023-03-29T01:38:07.339Z,100248.39
2023-03-29T01:40:35.773Z,100246.63
2023-03-29T01:43:19.045Z,100251.22
2023-03-29T01:45:55.566Z,100251.91
2023-03-29T01:48:32.704Z,100259.11
2023-03-29T01:51:15.067Z,100260.33
2023-03-29T01:53:50.948Z,100256.59
2023-03-29T01:56:23.035Z,100252.80
2023-03-29T01:58:57.117Z,100237.70
2023-03-29T02:01:30.043Z,100229.91
2023-03-29T02:04:03.371Z,100227.20
2023-03-29T02:06:36.206Z,100228.87
2023-03-29T02:09:05.046Z,100230.40
2023-03-29T02:11:41.957Z,100227.05
2023-03-29T02:14:22.276Z,100219.21
2023-03-29T02:16:50.444Z,100219.55
2023-03-29T02:19:19.781Z,100225.83
2023-03-29T02:22:07.228Z,100231.19
2023-03-29T02:24:39.385Z,100223.00
2023-03-29T02:27:09.763Z,100217.20
2023-03-29T02:29:37.968Z,100214.20
2023-03-29T02:32:16.827Z,100211.44
2023-03-29T02:34:56.568Z,100217.98
2023-03-29T02:37:30.344Z,100216.28
2023-03-29T02:40:00.629Z,100211.80
2023-03-29T02:42:29.247Z,100212.02
2023-03-29T02:45:02.416Z,100220.54
2023-03-29T02:47:35.969Z,100226.66
2023-03-29T02:50:04.948Z,100223.99
2023-03-29T02:52:39.402Z,100222.90
2023-03-29T02:55:14.683Z,100221.86
2023-03-29T02:57:44.094Z,100226.66
2023-03-29T03:00:14.643Z,100224.52
2023-03-29T03:37:02.479Z,100233.23
2023-03-29T03:39:34.546Z,100230.14
2023-03-29T03:42:07.258Z,100224.38
2023-03-29T03:44:39.493Z,100228.27
2023-03-29T03:47:20.804Z,100232.08
2023-03-29T03:49:49.004Z,100236.33
2023-03-29T03:52:21.341Z,100242.27
2023-03-29T03:54:50.310Z,100235.60
2023-03-29T03:57:38.091Z,100228.01
2023-03-29T04:00:19.397Z,100231.36
2023-03-29T04:02:49.989Z,100234.48
2023-03-29T04:05:20.069Z,100240.34
2023-03-29T04:07:48.955Z,100245.33
2023-03-29T04:10:20.862Z,100239.17
2023-03-29T04:12:52.938Z,100234.70
2023-03-29T04:15:22.265Z,100238.51
2023-03-29T04:22:22.808Z,100243.34
2023-03-29T04:26:24.614Z,100232.92
2023-03-29T04:34:14.676Z,100234.25
2023-03-29T04:37:10.708Z,100239.80
2023-03-29T04:39:49.956Z,100238.67
2023-03-29T04:43:32.913Z,100241.25
2023-03-29T04:46:34.365Z,100242.73
2023-03-29T04:49:44.053Z,100239.92
2023-03-29T04:52:36.004Z,100238.52
2023-03-29T04:55:11.616Z,100244.40
2023-03-29T04:59:08.309Z,100244.34
2023-03-29T05:06:59.413Z,100240.03
2023-03-29T05:11:08.701Z,100235.30
2023-03-29T05:15:20.563Z,100226.84
2023-03-29T05:19:01.840Z,100219.02
2023-03-29T05:21:33.543Z,100208.25
2023-03-29T05:24:04.770Z,100205.02
2023-03-29T05:27:02.331Z,100204.33
2023-03-29T05:29:32.977Z,100207.10
2023-03-29T05:32:25.797Z,100208.35
2023-03-29T05:34:54.441Z,100208.09
2023-03-29T05:37:23.026Z,100211.97
2023-03-29T05:40:05.953Z,100218.77
2023-03-29T05:42:40.320Z,100218.32
2023-03-29T05:45:11.678Z,100213.13
2023-03-29T05:47:41.743Z,100209.59
2023-03-29T05:50:16.504Z,100205.67
2023-03-29T05:52:44.829Z,100203.56
2023-03-29T05:55:16.253Z,100203.55
2023-03-29T05:57:44.512Z,100198.81
2023-03-29T06:00:21.932Z,100196.55
2023-03-29T06:02:59.279Z,100195.19
2023-03-29T06:05:35.788Z,100195.82
2023-03-29T06:08:04.575Z,100196.75
2023-03-29T06:10:39.008Z,100195.88
2023-03-29T06:13:19.143Z,100193.61
2023-03-29T06:15:47.607Z,100192.79
2023-03-29T06:18:17.693Z,100190.25
2023-03-29T06:20:50.991Z,100185.96
2023-03-29T06:23:21.011Z,100183.42
2023-03-29T06:25:51.675Z,100181.38
2023-03-29T06:28:20.361Z,100175.66
2023-03-29T06:30:49.384Z,100183.91
2023-03-29T06:33:19.004Z,100182.70
2023-03-29T06:35:51.842Z,100182.46
2023-03-29T06:41:21.664Z,100163.17
2023-03-29T06:44:13.791Z,100162.19
2023-03-29T06:47:00.661Z,100160.48
2023-03-29T06:49:29.180Z,100163.80
2023-03-29T06:52:06.242Z,100163.30
2023-03-29T06:54:35.290Z,100165.55
2023-03-29T06:57:05.431Z,100158.55
2023-03-29T06:59:38.363Z,100151.83
2023-03-29T07:02:34.158Z,100149.63
2023-03-29T07:05:12.284Z,100147.46
2023-03-29T07:08:05.563Z,100143.52
2023-03-29T07:10:54.412Z,100134.68
2023-03-29T07:13:43.991Z,100126.58
2023-03-29T07:16:15.278Z,100117.82
2023-03-29T07:33:19.548Z,100078.34
2023-03-29T07:35:55.499Z,100066.83
2023-03-29T07:38:23.992Z,100059.06
2023-03-29T07:41:00.394Z,100054.79
2023-03-29T07:43:37.493Z,100052.35
2023-03-29T07:46:10.023Z,100051.30
2023-03-29T07:48:41.640Z,100067.61
2023-03-29T07:51:14.712Z,100073.67
2023-03-29T07:53:45.141Z,100065.16
2023-03-29T08:31:42.967Z,99995.36
2023-03-29T08:34:14.961Z,99989.70
2023-03-29T08:36:56.999Z,99984.54
2023-03-29T08:39:31.772Z,99984.84
2023-03-29T08:42:26.670Z,99978.98
2023-03-29T08:45:22.669Z,99972.83
2023-03-29T08:48:18.865Z,99977.17
2023-03-29T08:51:01.422Z,99978.15
2023-03-29T08:53:35.297Z,99975.40
2023-03-29T08:56:20.616Z,99971.82
2023-03-29T08:58:57.198Z,99971.88
2023-03-29T09:01:36.315Z,99969.91
2023-03-29T09:04:18.858Z,99963.82
2023-03-29T09:07:13.555Z,99964.90
2023-03-29T09:09:45.150Z,99968.58
2023-03-29T09:12:52.982Z,99964.33
2023-03-29T09:15:33.163Z,99959.03
2023-03-29T09:18:30.599Z,99954.44
2023-03-29T09:21:17.299Z,99947.92
2023-03-29T09:24:10.239Z,99946.71
2023-03-29T09:26:57.481Z,99947.35
2023-03-29T09:29:37.512Z,99951.25
2023-03-29T09:32:26.732Z,99942.87
2023-03-29T09:35:21.432Z,99941.82
2023-03-29T09:37:52.933Z,99936.02
2023-03-29T09:40:27.687Z,99935.21
2023-03-29T09:43:04.534Z,99941.00
2023-03-29T09:45:35.513Z,99937.13
2023-03-29T09:48:13.631Z,99932.01
2023-03-29T09:50:48.618Z,99933.77
2023-03-29T09:53:19.411Z,99925.23
2023-03-29T09:55:57.053Z,99922.29
2023-03-29T09:58:46.984Z,99926.20
2023-03-29T10:01:17.726Z,99925.50
2023-03-29T10:03:52.368Z,99920.08
2023-03-29T10:06:23.813Z,99914.44
2023-03-29T10:08:59.070Z,99906.91
2023-03-29T10:11:34.867Z,99914.28
2023-03-29T10:14:14.009Z,99917.37
2023-03-29T10:16:46.247Z,99917.79
2023-03-29T10:19:24.052Z,99909.48
2023-03-29T10:21:54.089Z,99904.27
2023-03-29T10:24:25.010Z,99910.09
2023-03-29T10:27:06.926Z,99905.48
2023-03-29T10:29:39.100Z,99900.63
2023-03-29T10:32:25.436Z,99901.70
2023-03-29T10:34:54.350Z,99899.70
2023-03-29T10:37:29.769Z,99900.23
2023-03-29T10:39:58.139Z,99897.20
2023-03-29T10:42:26.824Z,99889.85
2023-03-29T10:44:58.797Z,99886.13
2023-03-29T10:47:34.460Z,99885.09
2023-03-29T10:50:06.336Z,99880.28
2023-03-29T10:52:34.741Z,99875.67
2023-03-29T10:55:03.124Z,99880.39
2023-03-29T10:57:37.327Z,99873.92
2023-03-29T11:00:34.679Z,99870.61
2023-03-29T11:03:22.924Z,99859.43
2023-03-29T11:06:11.304Z,99847.06
2023-03-29T11:08:57.808Z,99848.35
2023-03-29T11:11:41.269Z,99847.88
2023-03-29T11:14:25.602Z,99846.38
2023-03-29T11:17:33.215Z,99846.66
2023-03-29T11:20:25.070Z,99851.30
2023-03-29T11:23:07.690Z,99850.99
2023-03-29T11:25:57.385Z,99845.27
2023-03-29T11:28:53.187Z,99836.55
2023-03-29T11:31:57.371Z,99843.80
2023-03-29T11:35:15.575Z,99834.94
2023-03-29T11:39:19.227Z,99828.83
2023-03-29T11:42:32.129Z,99822.38
2023-03-29T11:45:49.054Z,99818.48
2023-03-29T11:49:25.443Z,99817.39
2023-03-29T11:53:39.708Z,99806.61
2023-03-29T12:01:04.494Z,99792.20
2023-03-29T12:04:44.968Z,99785.01
2023-03-29T12:07:23.707Z,99795.46
2023-03-29T12:10:13.861Z,99782.08
2023-03-29T12:12:46.618Z,99780.02
2023-03-29T12:15:22.797Z,99780.30
2023-03-29T12:18:17.221Z,99777.77
2023-03-29T12:20:49.761Z,99778.69
2023-03-29T12:23:20.574Z,99778.79
2023-03-29T12:26:12.354Z,99779.79
2023-03-29T12:29:12.351Z,99771.23
2023-03-29T12:32:01.679Z,99770.67
2023-03-29T12:35:23.276Z,99763.83
2023-03-29T12:38:24.138Z,99759.48
2023-03-29T12:41:22.419Z,99756.85
2023-03-29T12:44:05.397Z,99757.23
2023-03-29T12:46:43.153Z,99749.83
2023-03-29T12:49:28.112Z,99751.80
2023-03-29T12:51:59.264Z,99748.35
2023-03-29T12:54:34.077Z,99747.23
2023-03-29T12:57:39.720Z,99749.29
2023-03-29T13:00:23.746Z,99743.57
2023-03-29T13:03:20.273Z,99738.72
2023-03-29T13:49:16.418Z,99699.08
2023-03-29T13:51:58.261Z,99703.74
2023-03-29T14:32:01.774Z,99682.41
2023-03-29T14:34:36.532Z,99685.58
2023-03-29T14:37:30.408Z,99680.17
2023-03-29T14:40:14.380Z,99674.75
2023-03-29T14:42:42.338Z,99683.01
2023-03-29T14:45:22.644Z,99688.33
2023-03-29T14:48:54.569Z,99681.08
2023-03-29T14:51:49.707Z,99676.88
2023-03-29T14:54:28.534Z,99678.27
2023-03-29T15:00:53.392Z,99673.11
2023-03-29T15:03:31.553Z,99672.95
2023-03-29T15:06:06.498Z,99673.77
2023-03-29T15:08:38.146Z,99672.25
2023-03-29T15:11:15.330Z,99673.81
2023-03-29T15:13:43.560Z,99675.51
2023-03-29T15:16:14.466Z,99674.98
2023-03-29T15:18:43.659Z,99676.43
2023-03-29T15:21:14.264Z,99671.09
2023-03-29T15:24:02.334Z,99670.13
2023-03-29T15:26:32.896Z,99670.95
2023-03-29T15:29:16.588Z,99673.35
2023-03-29T15:32:01.827Z,99670.19
2023-03-29T15:34:30.841Z,99661.52
2023-03-29T15:36:58.411Z,99665.52
2023-03-29T15:39:28.798Z,99666.27
2023-03-29T15:41:59.970Z,99667.67
2023-03-29T15:44:29.487Z,99669.55
2023-03-29T15:46:57.162Z,99667.20
2023-03-29T15:49:24.435Z,99668.09
2023-03-29T15:51:56.095Z,99665.29
2023-03-29T15:54:23.949Z,99657.81
2023-03-29T15:56:55.980Z,99655.86
2023-03-29T15:59:25.149Z,99654.67
2023-03-29T16:01:53.795Z,99652.38
2023-03-29T16:04:21.705Z,99651.76
2023-03-29T16:06:53.003Z,99652.67
2023-03-29T16:09:22.956Z,99646.17
2023-03-29T16:11:52.449Z,99645.32
2023-03-29T16:14:24.467Z,99646.43
2023-03-29T16:16:57.845Z,99646.14
2023-03-29T16:19:29.507Z,99643.10
2023-03-29T16:22:00.593Z,99640.52
2023-03-29T16:24:31.877Z,99641.80
2023-03-29T16:27:02.163Z,99639.46
2023-03-29T16:29:30.030Z,99641.32
2023-03-29T16:31:57.454Z,99642.55
2023-03-29T16:34:24.513Z,99641.40
2023-03-29T16:36:52.370Z,99640.05
2023-03-29T16:39:23.203Z,99637.70
2023-03-29T16:41:51.366Z,99628.46
2023-03-29T16:44:23.971Z,99624.56
2023-03-29T16:46:53.334Z,99621.55
2023-03-29T16:49:23.843Z,99624.68
2023-03-29T16:51:50.745Z,99618.68
2023-03-29T16:54:18.394Z,99614.91
2023-03-29T16:56:46.308Z,99615.94
2023-03-29T16:59:13.182Z,99620.83
2023-03-29T17:01:41.641Z,99617.38
2023-03-29T17:04:10.105Z,99614.98
2023-03-29T17:06:36.812Z,99615.29
2023-03-29T17:09:04.418Z,99614.02
2023-03-29T17:11:36.477Z,99616.41
2023-03-29T17:14:03.450Z,99625.90
2023-03-29T17:16:30.671Z,99626.81
2023-03-29T17:19:01.152Z,99630.52
2023-03-29T17:21:28.909Z,99630.48
2023-03-29T17:23:55.503Z,99633.39
2023-03-29T17:26:22.835Z,99638.08
2023-03-29T17:28:51.900Z,99637.02
2023-03-29T17:31:19.115Z,99641.49
2023-03-29T17:33:46.933Z,99647.49
2023-03-29T17:36:13.986Z,99647.24
2023-03-29T17:38:43.433Z,99655.91
2023-03-29T17:41:10.459Z,99655.99
2023-03-29T17:43:37.356Z,99654.07
2023-03-29T17:46:11.505Z,99652.58
2023-03-29T17:48:51.860Z,99646.02
2023-03-29T17:51:24.117Z,99646.47
2023-03-29T17:53:56.516Z,99644.77
2023-03-29T17:56:24.056Z,99648.40
2023-03-29T17:58:51.400Z,99650.57
2023-03-29T18:01:20.535Z,99654.42
2023-03-29T18:03:47.756Z,99656.93
2023-03-29T18:06:18.786Z,99656.19
2023-03-29T18:08:45.900Z,99663.16
2023-03-29T18:11:27.346Z,99658.55
2023-03-29T18:13:57.973Z,99655.89
2023-03-29T18:16:25.020Z,99651.28
2023-03-29T18:18:51.962Z,99653.16
2023-03-29T18:21:21.668Z,99654.70
2023-03-29T18:23:51.523Z,99664.63
2023-03-29T18:26:18.197Z,99664.80
2023-03-29T18:28:46.887Z,99668.73
2023-03-29T18:31:14.418Z,99674.59
2023-03-29T18:33:42.034Z,99675.81
2023-03-29T18:36:12.010Z,99672.96
2023-03-29T18:38:42.560Z,99667.83
2023-03-29T18:41:11.479Z,99664.04
2023-03-29T18:43:39.154Z,99663.91
2023-03-29T18:46:07.300Z,99660.58
2023-03-29T18:48:38.038Z,99664.83
2023-03-29T18:51:06.832Z,99674.06
2023-03-29T18:53:38.076Z,99677.42
2023-03-29T18:56:05.947Z,99667.64
2023-03-29T18:58:34.234Z,99663.08
2023-03-29T19:04:51.386Z,99659.73
2023-03-29T19:11:05.873Z,99659.85
2023-03-29T19:13:51.840Z,99660.86
2023-03-29T19:16:25.805Z,99660.27
2023-03-29T20:02:24.490Z,99619.35
2023-03-29T20:05:09.916Z,99618.36
2023-03-29T20:08:25.333Z,99618.07
2023-03-29T20:35:24.151Z,99585.49
2023-03-29T20:37:56.855Z,99579.25
2023-03-29T20:40:49.104Z,99575.19
2023-03-29T21:07:07.538Z,99573.23
2023-03-29T21:09:39.268Z,99576.04
2023-03-29T21:12:09.261Z,99577.28
2023-03-29T21:14:38.922Z,99575.34
2023-03-29T21:17:08.753Z,99576.93
2023-03-29T21:19:38.795Z,99580.83
2023-03-29T21:22:06.108Z,99575.63
2023-03-29T21:24:35.779Z,99573.38
2023-03-29T21:27:02.373Z,99573.48
2023-03-29T21:29:29.105Z,99574.59
2023-03-29T21:31:55.994Z,99582.62
2023-03-29T21:34:22.687Z,99579.92
2023-03-29T21:36:51.690Z,99574.92
2023-03-29T21:39:21.779Z,99578.27
2023-03-29T21:41:48.337Z,99580.27
2023-03-29T21:44:18.184Z,99580.67
2023-03-29T21:46:45.213Z,99582.05
2023-03-29T21:49:11.742Z,99581.60
2023-03-29T21:51:38.330Z,99577.92
2023-03-29T21:54:05.176Z,99577.17
2023-03-29T21:56:32.250Z,99582.14
2023-03-29T21:58:58.670Z,99581.17
2023-03-29T22:01:25.439Z,99580.89
2023-03-29T22:03:52.308Z,99577.31
2023-03-29T22:06:18.951Z,99577.31
2023-03-29T22:08:52.377Z,99581.94
2023-03-29T22:11:19.072Z,99587.17
2023-03-29T22:13:50.902Z,99580.91
2023-03-29T22:16:21.800Z,99575.89
2023-03-29T22:18:48.892Z,99572.19
2023-03-29T22:21:24.048Z,99570.10
2023-03-29T22:23:55.376Z,99569.64
2023-03-29T22:26:26.904Z,99565.92
2023-03-29T22:28:54.161Z,99562.89
2023-03-29T22:31:22.931Z,99569.98
2023-03-29T22:33:50.193Z,99565.76
2023-03-29T22:36:18.640Z,99563.38
2023-03-29T22:38:46.495Z,99558.42
2023-03-29T22:41:16.479Z,99548.48
2023-03-29T22:43:44.447Z,99549.86
2023-03-29T22:46:13.273Z,99546.66
2023-03-29T22:48:40.705Z,99539.63
2023-03-29T22:51:07.494Z,99536.55
2023-03-29T22:53:36.956Z,99535.40
2023-03-29T22:56:04.215Z,99535.15
2023-03-29T22:58:43.391Z,99532.77
2023-03-29T23:01:11.232Z,99532.11
2023-03-29T23:03:49.716Z,99532.20
2023-03-29T23:06:17.080Z,99530.43
2023-03-29T23:08:43.899Z,99529.81
2023-03-29T23:11:10.935Z,99526.57
2023-03-29T23:13:38.033Z,99524.48
2023-03-29T23:16:05.441Z,99527.06
2023-03-29T23:18:34.036Z,99530.30
2023-03-29T23:21:01.096Z,99527.18
2023-03-29T23:23:28.461Z,99529.47
2023-03-29T23:25:56.143Z,99526.75
2023-03-29T23:28:26.698Z,99525.39
2023-03-29T23:31:06.279Z,99524.45
2023-03-29T23:37:50.978Z,99521.02
2023-03-29T23:40:25.621Z,99518.73
2023-03-29T23:43:15.177Z,99519.94
2023-03-29T23:47:06.413Z,99521.95
2023-03-29T23:53:32.132Z,99521.86
2023-03-29T23:56:04.818Z,99520.40
2023-03-29T23:58:39.572Z,99519.04
